createdAt,value
2022-12-09T00:04:17.309Z,100718.72
2022-12-09T00:09:20.590Z,100706.56
2022-12-09T00:14:23.621Z,100713.38
2022-12-09T00:19:27.825Z,100695.97
2022-12-09T00:24:30.722Z,100703.63
2022-12-09T00:29:33.467Z,100703.63
2022-12-09T00:34:38.559Z,100706.84
2022-12-09T00:39:44.502Z,100707.66
2022-12-09T00:44:47.307Z,100709.31
2022-12-09T00:49:51.597Z,100714.44
2022-12-09T00:54:54.482Z,100718.53
2022-12-09T00:59:57.661Z,100720.34
2022-12-09T01:05:02.028Z,100720.28
2022-12-09T01:10:06.266Z,100725.31
2022-12-09T01:15:11.728Z,100717.69
2022-12-09T01:20:16.258Z,100728.06
2022-12-09T01:25:19.469Z,100722.72
2022-12-09T01:30:22.577Z,100724.38
2022-12-09T01:35:27.011Z,100728.63
2022-12-09T01:40:29.897Z,100729.34
2022-12-09T01:45:43.573Z,100734.22
2022-12-09T01:50:52.136Z,100733.34
2022-12-09T01:55:55.772Z,100731.75
2022-12-09T02:00:59.076Z,100732.53
2022-12-09T02:06:03.352Z,100713.44
2022-12-09T02:11:09.397Z,100724.00
2022-12-09T02:16:20.861Z,100722.13
2022-12-09T02:21:28.811Z,100719.63
2022-12-09T02:26:36.962Z,100717.06
2022-12-09T02:32:08.963Z,100707.34
2022-12-09T02:37:17.524Z,100715.19
2022-12-09T02:42:27.758Z,100708.25
2022-12-09T02:47:34.158Z,100708.97
2022-12-09T02:52:39.535Z,100712.22
2022-12-09T02:57:42.729Z,100705.31
2022-12-09T03:02:50.573Z,100695.03
2022-12-09T03:08:00.293Z,100702.63
2022-12-09T03:13:06.942Z,100698.06
2022-12-09T03:18:12.494Z,100691.31
2022-12-09T03:23:17.990Z,100694.72
2022-12-09T03:28:22.973Z,100698.94
2022-12-09T03:33:26.610Z,100696.78
2022-12-09T03:38:34.342Z,100700.47
2022-12-09T03:43:39.418Z,100665.94
2022-12-09T03:48:42.285Z,100672.75
2022-12-09T03:53:50.949Z,100678.19
2022-12-09T03:58:55.488Z,100677.47
2022-12-09T04:03:58.640Z,100674.47
2022-12-09T04:09:03.401Z,100669.13
2022-12-09T04:14:10.404Z,100667.81
2022-12-09T04:19:16.737Z,100664.19
2022-12-09T04:24:20.980Z,100665.97
2022-12-09T04:29:23.874Z,100676.25
2022-12-09T04:34:27.031Z,100657.84
2022-12-09T04:39:31.434Z,100667.94
2022-12-09T04:44:34.316Z,100666.44
2022-12-09T04:49:37.498Z,100667.16
2022-12-09T04:54:41.776Z,100656.00
2022-12-09T04:59:44.680Z,100662.44
2022-12-09T05:04:47.937Z,100672.09
2022-12-09T05:09:53.074Z,100666.28
2022-12-09T05:14:56.320Z,100663.84
2022-12-09T05:19:59.233Z,100666.56
2022-12-09T05:25:03.501Z,100667.94
2022-12-09T05:30:08.007Z,100668.97
2022-12-09T05:35:11.579Z,100668.16
2022-12-09T05:40:17.812Z,100666.59
2022-12-09T05:45:20.826Z,100661.25
2022-12-09T05:50:24.012Z,100671.97
2022-12-09T05:55:28.316Z,100672.72
2022-12-09T06:00:31.418Z,100663.03
2022-12-09T06:05:34.585Z,100674.09
2022-12-09T06:10:41.543Z,100631.06
2022-12-09T06:15:44.715Z,100673.56
2022-12-09T06:20:47.982Z,100670.09
2022-12-09T06:25:52.482Z,100664.78
2022-12-09T06:30:55.635Z,100674.19
2022-12-09T06:36:02.124Z,100670.69
2022-12-09T06:41:08.807Z,100670.31
2022-12-09T06:46:16.134Z,100662.88
2022-12-09T06:51:19.895Z,100661.16
2022-12-09T06:56:24.851Z,100657.19
2022-12-09T07:01:28.604Z,100653.88
2022-12-09T07:06:37.334Z,100656.13
2022-12-09T07:11:42.515Z,100657.31
2022-12-09T07:16:46.073Z,100663.16
2022-12-09T07:21:50.102Z,100663.03
2022-12-09T07:26:54.510Z,100670.44
2022-12-09T07:31:57.895Z,100673.97
2022-12-09T07:37:01.238Z,100671.50
2022-12-09T07:42:06.528Z,100673.34
2022-12-09T07:47:21.336Z,100681.88
2022-12-09T07:52:24.747Z,100681.72
2022-12-09T07:57:29.144Z,100684.56
2022-12-09T08:02:32.443Z,100682.41
2022-12-09T08:07:38.835Z,100682.91
2022-12-09T08:12:48.128Z,100684.03
2022-12-09T08:17:51.086Z,100679.53
2022-12-09T08:22:54.947Z,100688.94
2022-12-09T08:27:59.687Z,100679.09
2022-12-09T08:33:03.370Z,100689.00
2022-12-09T08:38:06.614Z,100686.13
2022-12-09T08:43:11.447Z,100682.25
2022-12-09T08:48:14.505Z,100664.19
2022-12-09T08:53:17.871Z,100671.34
2022-12-09T08:58:22.071Z,100673.47
2022-12-09T09:03:25.367Z,100666.03
2022-12-09T09:08:28.449Z,100690.59
2022-12-09T09:13:33.299Z,100672.38
2022-12-09T09:18:36.674Z,100678.91
2022-12-09T09:23:40.083Z,100659.56
2022-12-09T09:28:44.650Z,100675.84
2022-12-09T09:33:48.766Z,100673.34
2022-12-09T09:38:53.941Z,100678.84
2022-12-09T09:43:58.975Z,100675.69
2022-12-09T09:49:02.405Z,100661.41
2022-12-09T09:54:08.912Z,100688.72
2022-12-09T09:59:23.968Z,100664.41
2022-12-09T10:04:31.707Z,100669.75
2022-12-09T10:09:42.791Z,100682.16
2022-12-09T10:14:54.499Z,100682.13
2022-12-09T10:20:00.210Z,100661.06
2022-12-09T10:25:17.878Z,100673.69
2022-12-09T10:30:23.304Z,100676.34
2022-12-09T10:35:28.803Z,100666.09
2022-12-09T10:40:38.250Z,100655.94
2022-12-09T10:51:15.089Z,100660.59
2022-12-09T10:56:20.156Z,100670.25
2022-12-09T11:01:24.628Z,100676.16
2022-12-09T11:06:41.754Z,100672.13
2022-12-09T11:11:46.515Z,100668.69
2022-12-09T11:16:56.231Z,100667.25
2022-12-09T11:22:16.088Z,100682.50
2022-12-09T11:27:28.900Z,100673.97
2022-12-09T11:32:33.350Z,100682.16
2022-12-09T11:37:42.473Z,100678.94
2022-12-09T11:42:50.478Z,100664.66
2022-12-09T11:53:29.398Z,100647.06
2022-12-09T11:58:37.985Z,100663.41
2022-12-09T12:03:47.332Z,100655.03
2022-12-09T12:08:52.769Z,100659.38
2022-12-09T12:14:01.815Z,100651.66
2022-12-09T12:19:13.392Z,100645.69
2022-12-09T12:24:45.594Z,100646.88
2022-12-09T12:29:54.930Z,100626.47
2022-12-09T12:35:11.744Z,100618.56
2022-12-09T12:40:26.831Z,100622.75
2022-12-09T12:45:54.795Z,100621.88
2022-12-09T12:56:40.901Z,100618.47
2022-12-09T13:01:52.162Z,100608.25
2022-12-09T13:07:01.787Z,100607.38
2022-12-09T13:12:10.616Z,100612.53
2022-12-09T13:17:14.718Z,100608.34
2022-12-09T13:22:21.804Z,100603.13
2022-12-09T13:27:31.475Z,100598.94
2022-12-09T13:32:50.679Z,100598.94
2022-12-09T13:38:01.524Z,100586.97
2022-12-09T13:43:13.565Z,100592.06
2022-12-09T13:48:41.833Z,100587.75
2022-12-09T13:53:50.510Z,100589.44
2022-12-09T13:59:31.928Z,100596.25
2022-12-09T14:04:36.494Z,100575.63
2022-12-09T14:09:48.363Z,100591.19
2022-12-09T14:14:52.749Z,100582.59
2022-12-09T14:20:02.654Z,100582.41
2022-12-09T14:25:51.192Z,100600.44
2022-12-09T14:31:08.063Z,100602.03
2022-12-09T14:36:24.567Z,100598.50
2022-12-09T14:41:32.375Z,100585.56
2022-12-09T14:46:37.075Z,100597.47
2022-12-09T14:51:44.139Z,100604.25
2022-12-09T14:56:51.435Z,100592.88
2022-12-09T15:01:57.148Z,100600.47
2022-12-09T15:07:10.955Z,100603.81
2022-12-09T15:12:15.281Z,100597.63
2022-12-09T15:17:24.366Z,100601.00
2022-12-09T15:22:30.552Z,100605.13
2022-12-09T15:27:34.854Z,100607.41
2022-12-09T15:32:39.989Z,100601.13
2022-12-09T15:37:42.934Z,100606.97
2022-12-09T15:42:48.657Z,100621.44
2022-12-09T15:47:54.535Z,100632.56
2022-12-09T15:53:01.112Z,100628.13
2022-12-09T15:58:08.049Z,100638.31
2022-12-09T16:03:11.081Z,100651.19
2022-12-09T16:08:13.984Z,100651.06
2022-12-09T16:13:21.186Z,100637.38
2022-12-09T16:18:25.633Z,100637.22
2022-12-09T16:23:28.679Z,100641.56
2022-12-09T16:28:33.026Z,100648.41
2022-12-09T16:33:39.523Z,100643.06
2022-12-09T16:38:44.340Z,100649.09
2022-12-09T16:43:57.189Z,100652.88
2022-12-09T16:49:05.029Z,100646.97
2022-12-09T16:54:20.245Z,100645.56
2022-12-09T16:59:28.960Z,100625.69
2022-12-09T17:04:36.992Z,100645.22
2022-12-09T17:09:39.775Z,100653.91
2022-12-09T17:14:44.123Z,100663.31
2022-12-09T17:19:47.207Z,100655.34
2022-12-09T17:24:50.293Z,100662.28
2022-12-09T17:29:54.485Z,100668.88
2022-12-09T17:34:57.312Z,100667.94
2022-12-09T17:40:03.501Z,100666.63
2022-12-09T17:45:10.303Z,100671.00
2022-12-09T17:50:13.290Z,100670.16
2022-12-09T17:55:16.170Z,100678.69
2022-12-09T18:00:20.928Z,100677.13
2022-12-09T18:05:23.750Z,100657.34
2022-12-09T18:10:26.586Z,100672.09
2022-12-09T18:15:30.756Z,100666.72
2022-12-09T18:20:34.211Z,100675.38
2022-12-09T18:25:39.742Z,100677.13
2022-12-09T18:30:44.037Z,100692.66
2022-12-09T18:35:47.190Z,100696.22
2022-12-09T18:41:02.234Z,100692.69
2022-12-09T18:46:08.734Z,100691.66
2022-12-09T18:51:16.542Z,100709.59
2022-12-09T18:56:19.431Z,100720.13
2022-12-09T19:01:25.469Z,100721.06
2022-12-09T19:06:31.616Z,100716.97
2022-12-09T19:11:35.553Z,100721.19
2022-12-09T19:16:39.881Z,100714.91
2022-12-09T19:21:43.233Z,100695.72
2022-12-09T19:26:46.191Z,100718.03
2022-12-09T19:31:51.264Z,100712.91
2022-12-09T19:36:56.073Z,100705.13
2022-12-09T19:41:59.750Z,100721.69
2022-12-09T19:47:04.134Z,100712.22
2022-12-09T19:52:07.015Z,100703.97
2022-12-09T19:57:10.623Z,100718.50
2022-12-09T20:02:15.321Z,100727.94
2022-12-09T20:07:18.341Z,100727.25
2022-12-09T20:12:21.406Z,100733.16
2022-12-09T20:17:25.586Z,100736.59
2022-12-09T20:22:29.604Z,100720.97
2022-12-09T20:27:32.459Z,100723.53
2022-12-09T20:32:36.681Z,100740.69
2022-12-09T20:37:39.557Z,100740.75
2022-12-09T20:42:42.439Z,100739.88
2022-12-09T20:47:46.674Z,100739.00
2022-12-09T20:52:49.550Z,100757.81
2022-12-09T20:57:52.346Z,100756.03
2022-12-09T21:02:56.548Z,100755.09
2022-12-09T21:07:59.445Z,100758.44
2022-12-09T21:13:02.585Z,100749.72
2022-12-09T21:18:06.953Z,100723.09
2022-12-09T21:23:32.734Z,100748.38
2022-12-09T21:28:32.793Z,100760.31
2022-12-09T21:33:37.408Z,100755.94
2022-12-09T21:38:40.661Z,100761.75
2022-12-09T21:43:43.713Z,100763.38
2022-12-09T21:48:52.088Z,100759.72
2022-12-09T21:53:56.015Z,100764.91
2022-12-09T21:58:59.624Z,100755.47
2022-12-09T22:04:05.908Z,100762.31
2022-12-09T22:09:09.158Z,100758.72
2022-12-09T22:14:12.169Z,100762.22
2022-12-09T22:19:18.329Z,100758.72
2022-12-09T22:24:21.154Z,100761.19
2022-12-09T22:29:24.132Z,100772.44
2022-12-09T22:34:29.044Z,100777.47
2022-12-09T22:39:31.920Z,100774.88
2022-12-09T22:44:34.746Z,100774.88
2022-12-09T22:49:39.017Z,100779.03
2022-12-09T22:54:41.902Z,100777.41
2022-12-09T22:59:44.768Z,100786.09
2022-12-09T23:04:48.960Z,100786.88
2022-12-09T23:09:51.811Z,100786.94
2022-12-09T23:14:54.724Z,100785.00
2022-12-09T23:19:58.973Z,100788.34
2022-12-09T23:25:01.799Z,100786.72
2022-12-09T23:30:07.099Z,100780.03
2022-12-09T23:35:11.777Z,100787.88
2022-12-09T23:40:14.571Z,100785.41
2022-12-09T23:45:17.597Z,100778.72
2022-12-09T23:50:21.892Z,100788.81
2022-12-09T23:55:24.713Z,100785.34
